createdAt,value
2022-12-08T00:00:37.062Z,20.07
2022-12-08T00:03:06.843Z,19.91
2022-12-08T00:05:54.888Z,19.95
2022-12-08T00:08:42.639Z,20.07
2022-12-08T00:11:15.452Z,20.14
2022-12-08T00:13:45.391Z,20.09
2022-12-08T00:16:15.164Z,20.26
2022-12-08T00:18:45.277Z,20.38
2022-12-08T00:21:15.064Z,20.18
2022-12-08T00:23:44.810Z,20.04
2022-12-08T00:26:14.579Z,20.05
2022-12-08T00:28:44.799Z,19.89
2022-12-08T00:31:15.112Z,19.84
2022-12-08T00:33:45.288Z,19.70
2022-12-08T00:36:16.280Z,19.54
2022-12-08T00:38:48.334Z,19.45
2022-12-08T00:41:41.691Z,19.40
2022-12-08T00:44:14.401Z,19.40
2022-12-08T00:46:44.558Z,19.46
2022-12-08T00:49:14.294Z,19.50
2022-12-08T00:51:45.279Z,19.67
2022-12-08T00:54:16.640Z,19.75
2022-12-08T00:56:47.313Z,19.89
2022-12-08T00:59:18.596Z,19.88
2022-12-08T01:01:49.756Z,19.89
2022-12-08T01:04:21.456Z,19.87
2022-12-08T01:06:51.876Z,19.79
2022-12-08T01:09:22.094Z,19.81
2022-12-08T01:11:51.844Z,19.84
2022-12-08T01:14:21.597Z,19.91
2022-12-08T01:16:52.424Z,19.85
2022-12-08T01:19:22.279Z,19.78
2022-12-08T01:21:52.060Z,19.81
2022-12-08T01:24:23.106Z,19.73
2022-12-08T01:26:53.898Z,19.75
2022-12-08T01:29:23.854Z,19.68
2022-12-08T01:31:53.654Z,19.74
2022-12-08T01:34:24.331Z,19.75
2022-12-08T01:36:54.035Z,19.79
2022-12-08T01:39:23.809Z,19.71
2022-12-08T01:41:54.525Z,19.67
2022-12-08T01:44:24.187Z,19.60
2022-12-08T01:46:56.335Z,19.53
2022-12-08T01:49:31.255Z,19.40
2022-12-08T01:52:18.753Z,19.33
2022-12-08T01:54:52.932Z,19.23
2022-12-08T01:57:30.533Z,19.10
2022-12-08T02:00:21.916Z,18.98
2022-12-08T02:03:05.001Z,18.92
2022-12-08T02:05:41.961Z,18.99
2022-12-08T02:08:14.152Z,18.92
2022-12-08T02:10:45.950Z,18.88
2022-12-08T02:13:19.490Z,18.79
2022-12-08T02:16:05.492Z,18.75
2022-12-08T02:19:29.621Z,18.68
2022-12-08T02:22:25.515Z,18.62
2022-12-08T02:25:09.093Z,18.54
2022-12-08T02:27:45.377Z,18.54
2022-12-08T02:30:34.013Z,18.57
2022-12-08T02:33:38.104Z,18.48
2022-12-08T02:36:19.875Z,18.55
2022-12-08T02:39:01.569Z,18.72
2022-12-08T02:41:51.620Z,18.89
2022-12-08T02:44:35.871Z,18.79
2022-12-08T02:47:05.833Z,18.81
2022-12-08T02:49:37.133Z,18.85
2022-12-08T02:52:30.434Z,18.78
2022-12-08T02:55:02.932Z,18.60
2022-12-08T02:57:53.750Z,18.50
2022-12-08T03:00:27.140Z,18.38
2022-12-08T03:03:11.194Z,18.26
2022-12-08T03:06:06.808Z,18.16
2022-12-08T03:08:56.399Z,17.99
2022-12-08T03:11:38.241Z,17.87
2022-12-08T03:14:11.983Z,17.78
2022-12-08T03:16:46.635Z,17.71
2022-12-08T03:19:27.267Z,17.63
2022-12-08T03:22:04.261Z,17.56
2022-12-08T03:24:39.234Z,17.52
2022-12-08T03:27:21.699Z,17.48
2022-12-08T03:29:54.451Z,17.41
2022-12-08T03:32:30.258Z,17.32
2022-12-08T03:35:01.819Z,17.30
2022-12-08T03:37:32.078Z,17.21
2022-12-08T03:40:02.065Z,17.18
2022-12-08T03:42:32.425Z,17.14
2022-12-08T03:45:02.572Z,17.14
2022-12-08T03:47:32.354Z,17.07
2022-12-08T03:50:02.538Z,17.06
2022-12-08T03:52:32.373Z,17.03
2022-12-08T03:55:02.215Z,16.97
2022-12-08T03:57:31.929Z,16.86
2022-12-08T04:00:02.106Z,16.87
2022-12-08T04:02:34.429Z,16.84
2022-12-08T04:05:04.824Z,16.83
2022-12-08T04:07:34.613Z,16.83
2022-12-08T04:10:04.538Z,16.79
2022-12-08T04:12:34.472Z,16.77
2022-12-08T04:15:04.176Z,16.73
2022-12-08T04:17:33.872Z,16.70
2022-12-08T04:20:04.901Z,16.67
2022-12-08T04:22:35.072Z,16.69
2022-12-08T04:25:04.941Z,16.63
2022-12-08T04:27:34.665Z,16.65
2022-12-08T04:30:04.599Z,16.57
2022-12-08T04:32:35.074Z,16.55
2022-12-08T04:35:04.899Z,16.52
2022-12-08T04:37:35.429Z,16.52
2022-12-08T04:40:05.935Z,16.49
2022-12-08T04:42:35.846Z,16.42
2022-12-08T04:45:07.439Z,16.41
2022-12-08T04:47:37.498Z,16.38
2022-12-08T04:50:08.443Z,16.36
2022-12-08T04:52:38.593Z,16.32
2022-12-08T04:55:08.825Z,16.29
2022-12-08T04:57:38.678Z,16.24
2022-12-08T05:00:09.106Z,16.28
2022-12-08T05:02:38.868Z,16.22
2022-12-08T05:05:09.059Z,16.18
2022-12-08T05:07:38.953Z,16.12
2022-12-08T05:10:09.848Z,16.16
2022-12-08T05:12:39.605Z,16.16
2022-12-08T05:15:09.769Z,16.11
2022-12-08T05:17:40.634Z,16.04
2022-12-08T05:20:10.938Z,15.98
2022-12-08T05:22:42.589Z,15.94
2022-12-08T05:25:12.738Z,15.94
2022-12-08T05:27:42.474Z,15.87
2022-12-08T05:30:12.727Z,15.88
2022-12-08T05:32:42.612Z,15.91
2022-12-08T05:35:12.691Z,15.91
2022-12-08T05:37:42.403Z,15.90
2022-12-08T05:40:12.925Z,15.83
2022-12-08T05:42:43.135Z,15.78
2022-12-08T05:45:13.050Z,15.80
2022-12-08T05:47:43.066Z,15.77
2022-12-08T05:50:12.894Z,15.77
2022-12-08T05:52:43.641Z,15.71
2022-12-08T05:55:13.863Z,15.68
2022-12-08T05:57:43.695Z,15.64
2022-12-08T06:00:13.865Z,15.66
2022-12-08T06:02:44.354Z,15.64
2022-12-08T06:05:14.201Z,15.57
2022-12-08T06:07:43.995Z,15.51
2022-12-08T06:10:14.514Z,15.51
2022-12-08T06:12:44.196Z,15.53
2022-12-08T06:15:13.978Z,15.50
2022-12-08T06:17:43.667Z,15.47
2022-12-08T06:20:13.671Z,15.47
2022-12-08T06:22:43.350Z,15.49
2022-12-08T06:25:13.323Z,15.50
2022-12-08T06:27:43.012Z,15.49
2022-12-08T06:30:12.917Z,15.49
2022-12-08T06:32:42.951Z,15.50
2022-12-08T06:35:12.989Z,15.49
2022-12-08T06:37:42.914Z,15.49
2022-12-08T06:40:13.095Z,15.49
2022-12-08T06:42:45.148Z,15.47
2022-12-08T06:45:17.163Z,15.49
2022-12-08T06:47:47.675Z,15.44
2022-12-08T06:50:17.382Z,15.42
2022-12-08T06:52:56.962Z,15.42
2022-12-08T06:58:24.533Z,15.44
2022-12-08T07:00:55.122Z,15.44
2022-12-08T07:03:25.060Z,15.39
2022-12-08T07:06:03.457Z,15.40
2022-12-08T07:08:35.762Z,15.37
2022-12-08T07:11:14.146Z,15.37
2022-12-08T07:13:47.118Z,15.46
2022-12-08T07:16:17.345Z,15.46
2022-12-08T07:18:47.446Z,15.29
2022-12-08T07:21:18.979Z,15.23
2022-12-08T07:23:56.049Z,15.20
2022-12-08T07:26:28.213Z,15.13
2022-12-08T07:28:57.914Z,15.03
2022-12-08T07:31:29.604Z,14.93
2022-12-08T07:33:59.972Z,14.91
2022-12-08T07:36:29.891Z,14.93
2022-12-08T07:38:59.691Z,14.87
2022-12-08T07:41:29.435Z,14.88
2022-12-08T07:43:59.187Z,14.81
2022-12-08T07:46:29.318Z,14.79
2022-12-08T07:48:59.936Z,14.82
2022-12-08T07:51:30.033Z,14.78
2022-12-08T07:54:00.730Z,14.79
2022-12-08T07:56:32.097Z,14.81
2022-12-08T07:59:03.744Z,14.74
2022-12-08T08:01:35.773Z,14.68
2022-12-08T08:04:07.368Z,14.67
2022-12-08T08:06:38.999Z,14.67
2022-12-08T08:09:11.550Z,14.63
2022-12-08T08:11:41.808Z,14.64
2022-12-08T08:14:12.447Z,14.52
2022-12-08T08:16:48.224Z,14.52
2022-12-08T08:19:20.214Z,14.52
2022-12-08T08:21:50.139Z,14.51
2022-12-08T08:24:19.948Z,14.60
2022-12-08T08:26:49.646Z,14.60
2022-12-08T08:29:19.352Z,14.57
2022-12-08T08:31:49.059Z,14.56
2022-12-08T08:34:18.788Z,14.61
2022-12-08T08:36:48.539Z,14.68
2022-12-08T08:39:18.575Z,14.78
2022-12-08T08:41:48.258Z,14.87
2022-12-08T08:44:17.934Z,14.85
2022-12-08T08:46:47.724Z,14.89
2022-12-08T08:49:17.551Z,14.96
2022-12-08T08:51:47.957Z,14.99
2022-12-08T08:54:18.022Z,15.05
2022-12-08T08:56:49.335Z,15.12
2022-12-08T08:59:20.304Z,15.18
2022-12-08T09:01:50.526Z,15.22
2022-12-08T09:04:21.395Z,15.26
2022-12-08T09:06:52.066Z,15.32
2022-12-08T09:09:21.854Z,15.39
2022-12-08T09:11:51.599Z,15.47
2022-12-08T09:14:21.667Z,15.56
2022-12-08T09:16:51.841Z,15.66
2022-12-08T09:19:22.181Z,15.70
2022-12-08T09:21:51.886Z,15.77
2022-12-08T09:24:21.583Z,15.90
2022-12-08T09:26:51.463Z,17.39
2022-12-08T09:29:21.666Z,17.75
2022-12-08T09:31:52.360Z,17.45
2022-12-08T09:34:22.392Z,17.20
2022-12-08T09:36:52.401Z,17.08
2022-12-08T09:39:22.421Z,17.46
2022-12-08T09:41:59.005Z,17.51
2022-12-08T09:44:45.955Z,17.35
2022-12-08T09:47:35.531Z,17.36
2022-12-08T09:50:15.689Z,17.52
2022-12-08T09:53:04.200Z,17.68
2022-12-08T09:55:47.879Z,17.86
2022-12-08T09:58:27.701Z,18.07
2022-12-08T10:00:58.683Z,18.14
2022-12-08T10:03:31.161Z,18.29
2022-12-08T10:06:21.281Z,18.38
2022-12-08T10:09:32.405Z,18.58
2022-12-08T10:12:06.578Z,18.68
2022-12-08T10:14:47.625Z,18.96
2022-12-08T10:17:27.471Z,19.00
2022-12-08T10:20:14.083Z,19.29
2022-12-08T10:22:47.739Z,19.30
2022-12-08T10:25:23.186Z,19.63
2022-12-08T10:27:55.976Z,20.16
2022-12-08T10:30:29.010Z,20.04
2022-12-08T10:32:59.185Z,20.09
2022-12-08T10:35:54.496Z,20.38
2022-12-08T10:38:42.764Z,20.45
2022-12-08T10:41:14.631Z,20.67
2022-12-08T10:44:00.943Z,20.76
2022-12-08T10:46:32.396Z,20.77
2022-12-08T10:49:08.071Z,21.05
2022-12-08T10:51:44.855Z,21.25
2022-12-08T10:54:35.430Z,21.54
2022-12-08T10:57:06.261Z,21.81
2022-12-08T10:59:36.332Z,22.55
2022-12-08T11:02:21.784Z,23.34
2022-12-08T11:05:02.871Z,23.64
2022-12-08T11:07:32.935Z,23.68
2022-12-08T11:10:03.004Z,24.14
2022-12-08T11:12:33.338Z,24.60
2022-12-08T11:15:06.963Z,24.73
2022-12-08T11:17:45.070Z,24.72
2022-12-08T11:20:15.115Z,24.87
2022-12-08T11:22:47.204Z,25.28
2022-12-08T11:25:25.611Z,25.54
2022-12-08T11:27:59.991Z,25.71
2022-12-08T11:30:37.364Z,26.27
2022-12-08T11:33:19.011Z,26.26
2022-12-08T11:36:01.068Z,26.81
2022-12-08T11:38:32.687Z,26.67
2022-12-08T11:41:19.249Z,26.77
2022-12-08T11:44:01.842Z,26.92
2022-12-08T11:46:53.507Z,26.77
2022-12-08T11:49:36.413Z,26.71
2022-12-08T11:52:44.098Z,26.96
2022-12-08T11:55:40.638Z,27.05
2022-12-08T11:58:24.405Z,27.32
2022-12-08T12:00:54.650Z,27.19
2022-12-08T12:03:37.386Z,27.01
2022-12-08T12:06:38.096Z,27.16
2022-12-08T12:09:32.894Z,27.50
2022-12-08T12:12:45.207Z,27.66
2022-12-08T12:15:46.912Z,28.11
2022-12-08T12:18:41.706Z,28.01
2022-12-08T12:21:31.003Z,28.18
2022-12-08T12:24:22.251Z,28.76
2022-12-08T12:27:02.509Z,28.70
2022-12-08T12:29:55.287Z,28.66
2022-12-08T12:32:28.118Z,28.44
2022-12-08T12:35:01.791Z,28.75
2022-12-08T12:37:41.599Z,28.70
2022-12-08T12:40:23.407Z,28.49
2022-12-08T12:42:59.436Z,29.23
2022-12-08T12:45:34.664Z,29.48
2022-12-08T12:48:04.520Z,29.47
2022-12-08T12:50:39.622Z,29.58
2022-12-08T12:53:19.376Z,29.57
2022-12-08T12:56:05.024Z,29.88
2022-12-08T12:58:37.845Z,29.95
2022-12-08T13:01:10.866Z,30.22
2022-12-08T13:03:41.947Z,30.33
2022-12-08T13:06:15.185Z,30.40
2022-12-08T13:08:54.318Z,30.37
2022-12-08T13:11:26.978Z,30.47
2022-12-08T13:14:05.708Z,30.45
2022-12-08T13:16:40.083Z,30.40
2022-12-08T13:19:17.495Z,30.45
2022-12-08T13:21:48.117Z,30.26
2022-12-08T13:24:30.995Z,30.90
2022-12-08T13:27:06.944Z,30.75
2022-12-08T13:29:38.503Z,30.85
2022-12-08T13:32:11.759Z,31.35
2022-12-08T13:34:50.099Z,31.90
2022-12-08T13:37:59.962Z,31.86
2022-12-08T13:40:33.467Z,32.18
2022-12-08T13:44:02.156Z,32.41
2022-12-08T13:58:39.430Z,32.52
2022-12-08T14:01:09.790Z,32.85
2022-12-08T14:06:57.243Z,32.79
2022-12-08T14:09:30.535Z,33.12
2022-12-08T14:12:07.224Z,33.24
2022-12-08T14:15:03.675Z,33.07
2022-12-08T14:17:40.769Z,33.12
2022-12-08T14:20:13.807Z,32.93
2022-12-08T14:22:44.962Z,33.23
2022-12-08T14:25:19.032Z,33.06
2022-12-08T14:27:50.540Z,33.27
2022-12-08T14:30:29.549Z,33.50
2022-12-08T14:33:01.827Z,33.95
2022-12-08T14:35:38.076Z,34.01
2022-12-08T14:38:17.195Z,34.31
2022-12-08T14:40:48.532Z,34.38
2022-12-08T14:43:18.839Z,34.22
2022-12-08T14:45:54.475Z,34.04
2022-12-08T14:48:37.243Z,33.97
2022-12-08T14:51:22.483Z,34.05
2022-12-08T14:53:57.863Z,34.20
2022-12-08T14:56:41.384Z,34.48
2022-12-08T14:59:17.065Z,34.52
2022-12-08T15:01:48.858Z,34.80
2022-12-08T15:04:24.770Z,34.43
2022-12-08T15:06:59.680Z,34.69
2022-12-08T15:09:37.835Z,35.31
2022-12-08T15:12:15.568Z,35.58
2022-12-08T15:15:25.118Z,35.30
2022-12-08T15:18:13.518Z,35.71
2022-12-08T15:20:45.292Z,35.48
2022-12-08T15:23:34.024Z,35.86
2022-12-08T15:26:06.679Z,36.12
2022-12-08T15:28:36.781Z,36.07
2022-12-08T15:31:06.533Z,36.02
2022-12-08T15:33:36.949Z,35.54
2022-12-08T15:36:06.864Z,35.76
2022-12-08T15:38:36.690Z,36.02
2022-12-08T15:41:13.007Z,36.20
2022-12-08T15:43:44.657Z,36.07
2022-12-08T15:46:15.385Z,36.17
2022-12-08T15:48:45.743Z,36.15
2022-12-08T15:51:15.456Z,35.79
2022-12-08T15:53:45.157Z,36.17
2022-12-08T15:56:27.437Z,36.58
2022-12-08T15:58:59.838Z,36.55
2022-12-08T16:01:30.048Z,36.68
2022-12-08T16:09:45.242Z,37.25
2022-12-08T16:18:28.469Z,37.01
2022-12-08T16:21:31.509Z,37.40
2022-12-08T16:23:48.678Z,37.47
2022-12-08T16:27:21.803Z,37.42
2022-12-08T16:29:21.817Z,37.35
2022-12-08T16:31:51.795Z,37.12
2022-12-08T16:34:21.630Z,37.07
2022-12-08T16:36:53.527Z,36.96
2022-12-08T16:39:23.704Z,36.94
2022-12-08T16:42:56.365Z,37.52
2022-12-08T16:50:35.800Z,36.74
2022-12-08T16:53:12.191Z,36.98
2022-12-08T16:55:46.795Z,37.45
2022-12-08T16:58:17.145Z,37.97
2022-12-08T17:00:46.964Z,37.73
2022-12-08T17:03:18.455Z,37.67
2022-12-08T17:05:48.628Z,37.56
2022-12-08T17:08:18.381Z,37.81
2022-12-08T17:11:08.252Z,37.91
2022-12-08T17:13:40.752Z,37.94
2022-12-08T17:16:14.138Z,38.13
2022-12-08T17:18:44.135Z,38.00
2022-12-08T17:21:16.325Z,38.13
2022-12-08T17:23:46.655Z,38.10
2022-12-08T17:26:16.683Z,37.88
2022-12-08T17:29:01.954Z,38.08
2022-12-08T17:31:33.780Z,38.11
2022-12-08T17:34:05.412Z,38.21
2022-12-08T17:36:35.876Z,38.38
2022-12-08T17:39:07.036Z,38.15
2022-12-08T17:41:37.709Z,38.07
2022-12-08T17:44:17.513Z,37.97
2022-12-08T17:46:52.544Z,38.04
2022-12-08T17:49:26.334Z,38.18
2022-12-08T17:52:20.848Z,37.98
2022-12-08T17:54:51.409Z,38.28
2022-12-08T17:57:21.730Z,37.88
2022-12-08T17:59:51.513Z,37.96
2022-12-08T18:02:21.254Z,37.93
2022-12-08T18:04:51.356Z,37.94
2022-12-08T18:07:21.213Z,37.97
2022-12-08T18:09:52.703Z,38.20
2022-12-08T18:12:24.028Z,38.34
2022-12-08T18:14:54.081Z,38.11
2022-12-08T18:17:23.795Z,37.77
2022-12-08T18:19:53.913Z,37.91
2022-12-08T18:22:23.626Z,38.17
2022-12-08T18:24:53.327Z,37.88
2022-12-08T18:27:23.138Z,37.90
2022-12-08T18:29:52.907Z,37.55
2022-12-08T18:32:24.743Z,38.01
2022-12-08T18:34:54.896Z,38.13
2022-12-08T18:37:24.602Z,37.98
2022-12-08T18:39:54.402Z,38.11
2022-12-08T18:42:24.100Z,37.76
2022-12-08T18:44:58.187Z,37.62
2022-12-08T18:47:29.424Z,37.76
2022-12-08T18:50:00.106Z,37.55
2022-12-08T18:52:32.202Z,36.98
2022-12-08T18:55:07.548Z,36.78
2022-12-08T18:57:44.689Z,36.94
2022-12-08T19:00:17.928Z,37.23
2022-12-08T19:02:47.894Z,36.84
2022-12-08T19:05:18.001Z,36.84
2022-12-08T19:07:47.850Z,36.77
2022-12-08T19:10:18.561Z,36.95
2022-12-08T19:12:53.138Z,36.74
2022-12-08T19:15:22.845Z,36.67
2022-12-08T19:17:52.443Z,36.30
2022-12-08T19:20:23.452Z,36.23
2022-12-08T19:22:53.490Z,36.10
2022-12-08T19:25:23.300Z,35.85
2022-12-08T19:27:53.032Z,35.51
2022-12-08T19:30:22.760Z,35.15
2022-12-08T19:32:52.610Z,35.17
2022-12-08T19:35:22.368Z,35.07
2022-12-08T19:37:52.372Z,34.91
2022-12-08T19:40:40.276Z,34.73
2022-12-08T19:43:36.414Z,34.59
2022-12-08T19:46:07.232Z,34.38
2022-12-08T19:48:37.776Z,34.29
2022-12-08T19:51:07.923Z,34.20
2022-12-08T19:53:37.710Z,34.23
2022-12-08T19:56:07.482Z,34.22
2022-12-08T19:58:37.358Z,34.13
2022-12-08T20:01:07.202Z,34.11
2022-12-08T20:03:37.010Z,33.99
2022-12-08T20:06:06.840Z,33.87
2022-12-08T20:08:37.694Z,33.78
2022-12-08T20:11:07.526Z,33.54
2022-12-08T20:13:42.960Z,33.24
2022-12-08T20:16:14.128Z,33.10
2022-12-08T20:18:45.360Z,32.85
2022-12-08T20:21:15.406Z,32.68
2022-12-08T20:23:46.629Z,32.55
2022-12-08T20:26:17.469Z,32.42
2022-12-08T20:28:48.327Z,32.28
2022-12-08T20:31:29.700Z,32.29
2022-12-08T20:34:00.130Z,32.37
2022-12-08T20:36:30.086Z,32.34
2022-12-08T20:38:59.937Z,32.16
2022-12-08T20:41:32.666Z,31.86
2022-12-08T20:44:06.533Z,31.70
2022-12-08T20:46:36.735Z,31.45
2022-12-08T20:49:07.150Z,31.35
2022-12-08T20:51:37.023Z,31.19
2022-12-08T20:54:07.016Z,31.07
2022-12-08T20:56:36.813Z,30.99
2022-12-08T20:59:06.724Z,30.91
2022-12-08T21:01:36.648Z,30.90
2022-12-08T21:04:06.822Z,30.77
2022-12-08T21:06:36.944Z,30.68
2022-12-08T21:09:06.809Z,30.50
2022-12-08T21:11:36.933Z,30.43
2022-12-08T21:14:06.851Z,30.33
2022-12-08T21:16:37.010Z,30.16
2022-12-08T21:19:07.332Z,30.02
2022-12-08T21:21:37.189Z,29.82
2022-12-08T21:24:07.807Z,29.65
2022-12-08T21:26:37.735Z,29.50
2022-12-08T21:29:08.016Z,29.35
2022-12-08T21:31:38.405Z,29.20
2022-12-08T21:34:08.369Z,29.07
2022-12-08T21:36:38.460Z,28.96
2022-12-08T21:39:13.724Z,28.83
2022-12-08T21:42:02.569Z,28.73
2022-12-08T21:44:36.379Z,28.62
2022-12-08T21:47:07.433Z,28.51
2022-12-08T21:49:38.791Z,28.44
2022-12-08T21:52:08.912Z,28.32
2022-12-08T21:54:39.597Z,28.22
2022-12-08T21:57:09.371Z,28.14
2022-12-08T21:59:39.371Z,28.02
2022-12-08T22:02:12.773Z,27.87
2022-12-08T22:04:44.188Z,27.80
2022-12-08T22:07:14.388Z,27.66
2022-12-08T22:09:44.259Z,27.53
2022-12-08T22:12:14.232Z,27.57
2022-12-08T22:14:45.083Z,27.61
2022-12-08T22:17:15.568Z,27.67
2022-12-08T22:19:45.658Z,27.66
2022-12-08T22:22:15.500Z,27.60
2022-12-08T22:24:45.565Z,27.50
2022-12-08T22:27:15.391Z,27.54
2022-12-08T22:29:45.671Z,27.56
2022-12-08T22:32:15.490Z,27.45
2022-12-08T22:34:45.205Z,27.22
2022-12-08T22:37:15.114Z,27.03
2022-12-08T22:39:45.001Z,26.96
2022-12-08T22:42:15.830Z,26.82
2022-12-08T22:44:46.242Z,26.57
2022-12-08T22:47:16.226Z,26.61
2022-12-08T22:49:46.340Z,26.43
2022-12-08T22:52:16.260Z,26.65
2022-12-08T22:54:46.011Z,26.70
2022-12-08T22:57:16.629Z,26.64
2022-12-08T22:59:46.364Z,26.64
2022-12-08T23:02:16.117Z,26.64
2022-12-08T23:04:47.515Z,26.51
2022-12-08T23:07:17.867Z,26.48
2022-12-08T23:09:47.675Z,26.44
2022-12-08T23:12:19.740Z,26.64
2022-12-08T23:14:49.996Z,26.55
2022-12-08T23:17:20.759Z,26.60
2022-12-08T23:19:50.619Z,26.58
2022-12-08T23:22:20.393Z,26.60
2022-12-08T23:24:50.281Z,26.58
2022-12-08T23:27:20.045Z,26.57
2022-12-08T23:29:49.851Z,26.58
2022-12-08T23:32:19.812Z,26.52
2022-12-08T23:34:49.884Z,26.41
2022-12-08T23:37:20.086Z,26.37
2022-12-08T23:39:49.822Z,26.16
2022-12-08T23:42:19.573Z,25.94
2022-12-08T23:44:49.423Z,25.81
2022-12-08T23:47:19.397Z,25.65
2022-12-08T23:49:49.185Z,25.55
2022-12-08T23:52:19.221Z,25.48
2022-12-08T23:54:52.075Z,25.27
2022-12-08T23:57:22.872Z,25.20
2022-12-08T23:59:52.750Z,25.10
